Time;durP1;ratioP1;P1;durP2;ratioP2;P2;SDS_P1;SDS_P2;PMS_P1;PMS_P2;Temp;Humidity;BMP_temperature;BMP_pressure;BME280_temperature;BME280_humidity;BME280_pressure;Samples;Min_cycle;Max_cycle;Signal;HPM_P1;HPM_P2
2023/05/13 00:01:27;;;;;;;3.80;3.22;;;;;;;18.50;65.92;101983.00;6123395;23;20022;-55
2023/05/13 00:03:52;;;;;;;3.65;3.35;;;;;;;18.51;65.66;101986.59;6098451;23;20270;-55
2023/05/13 00:06:18;;;;;;;4.32;3.58;;;;;;;18.51;65.46;101983.91;6124052;23;20429;-55
2023/05/13 00:08:43;;;;;;;3.67;2.97;;;;;;;18.50;65.80;101980.31;6124212;23;20006;-55
2023/05/13 00:11:09;;;;;;;3.40;3.10;;;;;;;18.50;65.58;101984.88;6123911;23;20006;-55
2023/05/13 00:13:34;;;;;;;3.38;3.08;;;;;;;18.50;65.54;101985.72;6123858;23;20014;-55
2023/05/13 00:16:00;;;;;;;3.58;3.28;;;;;;;18.50;65.68;101980.31;6124752;23;20103;-55
2023/05/13 00:18:25;;;;;;;3.90;3.20;;;;;;;18.50;65.39;101980.31;6123777;23;20013;-55
2023/05/13 00:20:50;;;;;;;3.83;3.50;;;;;;;18.50;65.54;101979.47;6123715;23;20333;-55
2023/05/13 00:23:16;;;;;;;3.75;3.33;;;;;;;18.50;65.81;101974.94;6124034;23;20018;-55
2023/05/13 00:25:43;;;;;;;3.33;3.03;;;;;;;18.50;65.45;101980.31;6124195;23;20080;-55
2023/05/13 00:28:09;;;;;;;3.80;3.17;;;;;;;18.50;65.46;101980.31;6098369;23;20009;-55
2023/05/13 00:30:35;;;;;;;4.57;3.30;;;;;;;18.49;65.21;101980.47;6123580;23;20013;-55
2023/05/13 00:33:01;;;;;;;3.42;3.13;;;;;;;18.49;65.37;101972.38;6124260;23;20002;-55
2023/05/13 00:35:26;;;;;;;3.00;2.80;;;;;;;18.50;65.40;101979.47;6123803;23;20093;-55
2023/05/13 00:37:51;;;;;;;3.83;3.20;;;;;;;18.49;65.29;101980.47;6123624;23;20032;-55
2023/05/13 00:40:22;;;;;;;3.85;3.13;;;;;;;18.48;65.34;101976.88;6123194;23;20014;-55
2023/05/13 00:42:48;;;;;;;5.60;2.90;;;;;;;18.50;65.61;101983.00;6123702;23;20044;-55
2023/05/13 00:45:14;;;;;;;3.67;3.38;;;;;;;18.49;65.19;101984.00;6123756;23;20006;-55
2023/05/13 00:47:40;;;;;;;3.30;3.00;;;;;;;18.49;65.32;101980.47;6123429;23;20013;-55
2023/05/13 00:50:08;;;;;;;4.60;3.20;;;;;;;18.48;65.06;101987.69;6097579;23;20105;-55
2023/05/13 00:52:34;;;;;;;3.78;3.15;;;;;;;18.48;65.26;101984.13;6124348;23;20187;-55
2023/05/13 00:54:59;;;;;;;3.60;3.20;;;;;;;18.48;65.41;101981.44;6123457;23;20025;-55
2023/05/13 00:57:25;;;;;;;3.53;3.17;;;;;;;18.48;65.30;101982.28;6123652;23;20712;-55
2023/05/13 00:59:50;;;;;;;3.33;3.03;;;;;;;18.49;65.27;101983.16;6123213;23;20010;-55
2023/05/13 01:02:28;;;;;;;4.05;3.25;;;;;;;18.48;65.45;101982.28;6123283;23;20022;-55
2023/05/13 01:05:11;;;;;;;3.22;2.95;;;;;;;18.48;65.29;101978.72;6123440;23;20076;-55
2023/05/13 01:08:09;;;;;;;3.28;2.97;;;;;;;18.50;65.34;101980.31;6123568;23;20052;-55
2023/05/13 01:10:45;;;;;;;3.72;3.42;;;;;;;18.49;65.27;101975.94;6124133;23;20009;-55
2023/05/13 01:13:15;;;;;;;3.75;3.30;;;;;;;18.47;65.07;101979.72;6123514;23;20310;-55
2023/05/13 01:15:49;;;;;;;3.58;3.25;;;;;;;18.47;65.24;101977.03;6123046;23;20001;-55
2023/05/13 01:18:19;;;;;;;3.58;3.28;;;;;;;18.47;64.99;101982.44;6123261;23;20002;-55
2023/05/13 01:20:45;;;;;;;3.30;3.00;;;;;;;18.46;64.98;101978.84;6123454;23;20008;-55
2023/05/13 01:23:11;;;;;;;3.95;3.30;;;;;;;18.47;64.88;101979.72;6123250;23;20017;-55
2023/05/13 01:25:39;;;;;;;4.00;3.70;;;;;;;18.46;65.13;101973.47;6097375;23;20006;-55
2023/05/13 01:28:06;;;;;;;3.85;3.22;;;;;;;18.47;64.84;101974.34;6123810;23;20002;-55
2023/05/13 01:30:32;;;;;;;3.17;2.88;;;;;;;18.46;65.06;101976.16;6122937;23;20010;-55
2023/05/13 01:32:58;;;;;;;3.58;3.28;;;;;;;18.46;64.68;101978.00;6123199;23;20495;-55
2023/05/13 01:35:27;;;;;;;3.80;3.50;;;;;;;18.44;65.19;101972.72;6123163;23;20002;-55
2023/05/13 01:37:55;;;;;;;3.53;3.22;;;;;;;18.45;65.04;101981.66;6123055;23;20077;-55
2023/05/13 01:40:21;;;;;;;3.40;3.10;;;;;;;18.44;64.79;101975.41;6123151;23;20064;-55
2023/05/13 01:42:46;;;;;;;3.60;3.30;;;;;;;18.44;65.02;101980.81;6073141;23;20053;-55
2023/05/13 01:45:13;;;;;;;3.78;3.45;;;;;;;18.45;64.73;101976.28;6097028;23;20018;-55
2023/05/13 01:47:38;;;;;;;3.70;3.38;;;;;;;18.45;64.89;101981.66;6123324;23;20010;-55
2023/05/13 01:50:04;;;;;;;3.92;3.00;;;;;;;18.44;64.70;101982.66;6123796;23;20002;-55
2023/05/13 01:52:29;;;;;;;3.38;3.08;;;;;;;18.44;64.57;101988.06;6123273;23;20013;-55
2023/05/13 01:54:55;;;;;;;3.60;2.80;;;;;;;18.44;65.12;101993.44;6123291;23;20080;-55
2023/05/13 01:57:20;;;;;;;3.38;3.08;;;;;;;18.44;64.47;101983.50;6122958;23;20010;-55
2023/05/13 01:59:46;;;;;;;3.60;3.30;;;;;;;18.44;64.68;101988.06;6123069;23;20422;-55
2023/05/13 02:02:11;;;;;;;3.50;3.20;;;;;;;18.43;64.37;101987.19;6122575;23;20045;-55
2023/05/13 02:04:36;;;;;;;3.25;2.80;;;;;;;18.43;64.67;101983.63;6123695;23;20097;-55
2023/05/13 02:07:02;;;;;;;4.13;3.65;;;;;;;18.42;64.57;101984.63;6123214;23;20053;-55
2023/05/13 02:09:27;;;;;;;3.28;2.95;;;;;;;18.42;64.71;101981.94;6123152;23;20006;-56
2023/05/13 02:11:52;;;;;;;3.28;2.95;;;;;;;18.43;64.62;101986.31;6123042;23;20084;-55
2023/05/13 02:14:18;;;;;;;3.50;3.20;;;;;;;18.43;64.41;101991.72;6122994;23;20336;-55
2023/05/13 02:16:43;;;;;;;3.50;3.20;;;;;;;18.42;64.52;101984.63;6122962;23;20085;-55
2023/05/13 02:19:09;;;;;;;3.30;3.00;;;;;;;18.41;64.83;101989.16;6123406;23;20365;-55
2023/05/13 02:21:34;;;;;;;3.38;3.00;;;;;;;18.40;64.76;101987.44;6123562;23;20010;-55
2023/05/13 02:24:00;;;;;;;3.47;3.17;;;;;;;18.43;64.49;101986.31;6122950;23;20010;-55
2023/05/13 02:26:25;;;;;;;3.08;2.83;;;;;;;18.43;64.45;101983.63;6122967;23;20038;-56
2023/05/13 02:28:51;;;;;;;4.35;3.13;;;;;;;18.43;64.41;101989.03;6122774;23;20429;-55
2023/05/13 02:31:16;;;;;;;3.08;2.88;;;;;;;18.41;64.44;101983.78;6122860;23;20076;-56
2023/05/13 02:33:41;;;;;;;3.72;3.40;;;;;;;18.43;64.21;101994.41;6123080;23;20057;-55
2023/05/13 02:36:07;;;;;;;3.33;3.03;;;;;;;18.41;64.33;101988.28;6123348;23;20006;-55
2023/05/13 02:38:32;;;;;;;3.38;3.08;;;;;;;18.41;64.37;101991.88;6123045;23;20012;-55
2023/05/13 02:40:59;;;;;;;3.85;3.28;;;;;;;18.40;63.85;101986.59;6122599;23;20010;-55
2023/05/13 02:43:26;;;;;;;3.60;3.17;;;;;;;18.39;64.45;101988.44;6122546;23;20078;-55
2023/05/13 02:45:52;;;;;;;3.83;3.20;;;;;;;18.38;64.32;101981.31;6122504;23;20010;-55
2023/05/13 02:48:17;;;;;;;3.42;3.13;;;;;;;18.38;64.48;101984.00;6122737;23;20040;-55
2023/05/13 02:50:42;;;;;;;2.97;2.78;;;;;;;18.38;64.26;101977.75;6122854;23;20056;-55
2023/05/13 02:53:08;;;;;;;3.58;3.28;;;;;;;18.38;64.14;101977.75;6123568;23;20013;-55
2023/05/13 02:55:33;;;;;;;3.67;3.30;;;;;;;18.36;64.19;101976.03;6123087;23;20016;-55
2023/05/13 02:57:58;;;;;;;3.75;3.08;;;;;;;18.35;64.17;101977.03;6122700;23;20017;-55
2023/05/13 03:00:24;;;;;;;3.33;3.03;;;;;;;18.35;63.99;101973.44;6122776;23;20010;-53
2023/05/13 03:02:49;;;;;;;3.35;3.03;;;;;;;18.36;63.89;101988.66;6123281;23;20018;-55
2023/05/13 03:05:15;;;;;;;3.45;3.15;;;;;;;18.34;63.75;101983.38;6124559;23;20017;-55
2023/05/13 03:07:40;;;;;;;3.70;3.00;;;;;;;18.33;63.97;101976.28;6125133;23;20093;-55
2023/05/13 03:10:06;;;;;;;3.60;3.30;;;;;;;18.34;63.66;101979.84;6124645;23;20002;-55
2023/05/13 03:12:32;;;;;;;3.47;2.90;;;;;;;18.32;63.85;101977.25;6124402;23;20014;-55
2023/05/13 03:14:58;;;;;;;3.63;3.33;;;;;;;18.33;63.84;101973.59;6124431;23;20014;-55
2023/05/13 03:17:24;;;;;;;3.33;3.03;;;;;;;18.31;63.69;101975.53;6124412;23;20030;-55
2023/05/13 03:19:49;;;;;;;3.58;3.28;;;;;;;18.31;63.60;101978.22;6124383;23;20010;-55
2023/05/13 03:22:15;;;;;;;5.28;3.17;;;;;;;18.30;63.68;101979.22;6124676;23;20010;-55
2023/05/13 03:24:41;;;;;;;3.85;3.45;;;;;;;18.30;63.55;101975.66;6125096;23;20063;-55
2023/05/13 03:27:07;;;;;;;3.75;3.45;;;;;;;18.29;63.66;101982.03;6124203;23;20059;-55
2023/05/13 03:29:32;;;;;;;3.65;3.33;;;;;;;18.29;63.56;101982.03;6124585;23;20010;-55
2023/05/13 03:31:57;;;;;;;3.55;3.25;;;;;;;18.29;63.40;101984.72;6124087;23;20076;-55
2023/05/13 03:34:23;;;;;;;5.03;3.30;;;;;;;18.29;63.61;101987.41;6124366;23;20010;-55
2023/05/13 03:36:48;;;;;;;4.00;3.60;;;;;;;18.29;63.37;101984.72;6124439;23;20425;-55
2023/05/13 03:39:13;;;;;;;3.63;3.10;;;;;;;18.28;63.37;101985.72;6124116;23;20422;-55
2023/05/13 03:41:39;;;;;;;3.40;3.10;;;;;;;18.27;63.37;101981.28;6124485;23;20010;-55
2023/05/13 03:44:05;;;;;;;3.55;3.25;;;;;;;18.27;63.39;101986.69;6124353;23;20006;-56
2023/05/13 03:46:30;;;;;;;5.43;3.67;;;;;;;18.26;63.59;101991.22;6097990;23;20006;-55
2023/05/13 03:48:56;;;;;;;4.60;3.47;;;;;;;18.26;63.34;101996.63;6123947;23;20325;-55
2023/05/13 03:51:21;;;;;;;3.90;3.60;;;;;;;18.25;63.60;101986.78;6124339;23;20014;-55
2023/05/13 03:53:47;;;;;;;3.33;3.05;;;;;;;18.25;63.20;101989.50;6124124;23;20500;-55
2023/05/13 03:56:13;;;;;;;5.10;3.85;;;;;;;18.25;63.27;101997.59;6124885;23;20006;-55
2023/05/13 03:58:38;;;;;;;3.78;3.47;;;;;;;18.25;63.30;101986.78;6125177;23;20010;-55
2023/05/13 04:01:04;;;;;;;3.75;3.40;;;;;;;18.24;63.10;101995.00;6124211;23;20014;-55
2023/05/13 04:03:30;;;;;;;3.72;3.42;;;;;;;18.24;63.18;101993.19;6123638;23;20022;-55
2023/05/13 04:05:55;;;;;;;4.28;3.88;;;;;;;18.24;63.12;101986.91;6098138;23;20014;-55
2023/05/13 04:08:20;;;;;;;3.92;3.53;;;;;;;18.23;63.00;101991.44;6124336;23;20066;-55
2023/05/13 04:10:46;;;;;;;3.63;3.33;;;;;;;18.23;62.95;101994.16;6124145;23;20010;-55
2023/05/13 04:13:11;;;;;;;4.43;3.30;;;;;;;18.23;63.01;101996.84;6124886;23;20443;-55
2023/05/13 04:15:36;;;;;;;4.22;3.83;;;;;;;18.22;62.82;101995.16;6123817;23;20476;-55
2023/05/13 04:18:02;;;;;;;5.32;3.30;;;;;;;18.22;62.87;101997.84;6123998;23;20425;-55
2023/05/13 04:20:28;;;;;;;3.83;3.53;;;;;;;18.22;63.01;101995.16;6123871;23;20010;-55
2023/05/13 04:22:53;;;;;;;3.90;3.15;;;;;;;18.21;62.59;101996.09;6124174;23;20014;-55
2023/05/13 04:25:19;;;;;;;4.20;3.80;;;;;;;18.21;62.83;102001.50;6123882;23;20400;-55
2023/05/13 04:27:46;;;;;;;4.88;3.60;;;;;;;18.21;62.61;102006.88;6124465;23;20373;-55
2023/05/13 04:30:12;;;;;;;4.28;3.65;;;;;;;18.21;62.64;102006.88;6124807;23;20002;-55
2023/05/13 04:32:38;;;;;;;3.67;3.38;;;;;;;18.21;62.89;102000.66;6124007;23;20010;-55
2023/05/13 04:35:04;;;;;;;4.13;3.72;;;;;;;18.21;62.77;102006.03;6123944;23;20484;-55
2023/05/13 04:37:29;;;;;;;4.28;3.30;;;;;;;18.20;62.53;102005.19;6124064;23;20016;-55
2023/05/13 04:39:54;;;;;;;4.05;3.58;;;;;;;18.19;62.46;102006.16;6097434;23;20033;-55
2023/05/13 04:42:20;;;;;;;6.10;3.63;;;;;;;18.20;62.52;102015.97;6123643;23;20014;-55
2023/05/13 04:44:45;;;;;;;4.18;3.30;;;;;;;18.20;62.70;102010.59;6124586;23;20432;-55
2023/05/13 04:47:10;;;;;;;3.42;3.13;;;;;;;18.20;62.76;102013.28;6124284;23;20010;-55
2023/05/13 04:49:36;;;;;;;4.50;3.72;;;;;;;18.20;62.50;102013.28;6123707;23;20065;-55
2023/05/13 04:52:03;;;;;;;3.95;3.28;;;;;;;18.20;62.75;102015.09;6123792;23;20048;-55
2023/05/13 04:54:28;;;;;;;3.90;3.58;;;;;;;18.19;62.72;102006.16;6123898;23;20372;-55
2023/05/13 04:56:54;;;;;;;4.22;3.90;;;;;;;18.19;62.93;102014.25;6123608;23;20080;-55
2023/05/13 04:59:19;;;;;;;3.70;3.40;;;;;;;18.19;62.51;102011.53;6123696;23;20006;-54
2023/05/13 05:01:44;;;;;;;5.25;3.47;;;;;;;18.21;62.90;102016.81;6123976;23;20025;-55
2023/05/13 05:04:11;;;;;;;5.85;3.47;;;;;;;18.21;62.96;102016.81;6123692;23;20068;-55
2023/05/13 05:06:36;;;;;;;3.90;3.45;;;;;;;18.20;62.63;102015.97;6123816;23;20710;-55
2023/05/13 05:09:02;;;;;;;4.00;3.60;;;;;;;18.21;62.59;102017.69;6123437;23;20010;-55
2023/05/13 05:11:27;;;;;;;5.10;3.40;;;;;;;18.21;62.98;102020.38;6123570;23;20381;-55
2023/05/13 05:13:53;;;;;;;3.83;3.50;;;;;;;18.22;62.61;102018.53;6123412;23;20040;-55
2023/05/13 05:16:19;;;;;;;4.05;3.35;;;;;;;18.21;62.82;102027.59;6123187;23;20028;-55
2023/05/13 05:18:44;;;;;;;4.13;3.80;;;;;;;18.22;63.24;102032.00;6123661;23;20021;-55
2023/05/13 05:21:10;;;;;;;3.90;3.60;;;;;;;18.22;63.38;102032.00;6123574;23;20010;-55
2023/05/13 05:23:36;;;;;;;4.10;3.58;;;;;;;18.22;63.61;102029.31;6123303;23;20041;-55
2023/05/13 05:26:02;;;;;;;3.80;3.50;;;;;;;18.22;63.16;102035.59;6123122;23;20030;-55
2023/05/13 05:28:28;;;;;;;4.00;3.65;;;;;;;18.23;63.22;102029.19;6123319;23;20002;-55
2023/05/13 05:30:53;;;;;;;3.60;3.30;;;;;;;18.22;63.88;102030.19;6123089;23;20057;-55
2023/05/13 05:33:19;;;;;;;4.13;3.72;;;;;;;18.22;63.58;102040.97;6123622;23;20036;-55
2023/05/13 05:35:44;;;;;;;5.00;3.38;;;;;;;18.22;63.78;102040.97;6124002;23;20013;-55
2023/05/13 05:38:11;;;;;;;3.78;3.47;;;;;;;18.22;63.71;102043.66;6123257;23;20462;-55
2023/05/13 05:40:40;;;;;;;3.95;3.58;;;;;;;18.22;63.53;102046.38;6123291;23;20321;-55
2023/05/13 05:43:06;;;;;;;4.30;3.53;;;;;;;18.23;64.05;102041.81;6123377;23;20012;-55
2023/05/13 05:45:34;;;;;;;3.95;3.63;;;;;;;18.22;63.70;102048.19;6122903;23;20029;-55
2023/05/13 05:47:59;;;;;;;5.35;3.63;;;;;;;18.22;64.04;102057.16;6123101;23;20056;-55
2023/05/13 05:50:25;;;;;;;4.10;3.70;;;;;;;18.21;63.74;102041.94;6123293;23;20006;-55
2023/05/13 05:52:50;;;;;;;3.67;3.38;;;;;;;18.22;64.10;102048.19;6123308;23;20006;-55
2023/05/13 05:55:15;;;;;;;3.90;3.33;;;;;;;18.22;64.07;102054.44;6123764;23;20101;-55
2023/05/13 05:57:41;;;;;;;4.35;3.67;;;;;;;18.22;63.85;102054.44;6123090;23;20012;-55
2023/05/13 06:00:07;;;;;;;5.22;3.90;;;;;;;18.22;63.91;102049.06;6122647;23;20010;-55
2023/05/13 06:02:32;;;;;;;4.93;3.50;;;;;;;18.23;64.09;102049.91;6122469;23;20101;-55
2023/05/13 06:04:57;;;;;;;4.65;3.67;;;;;;;18.22;64.25;102057.16;6122868;23;20314;-55
2023/05/13 06:07:23;;;;;;;3.50;3.20;;;;;;;18.23;64.05;102064.25;6123027;23;20019;-55
2023/05/13 06:09:49;;;;;;;4.05;3.65;;;;;;;18.22;64.46;102057.16;6123562;23;20001;-55
2023/05/13 06:12:14;;;;;;;4.40;4.00;;;;;;;18.22;64.53;102054.44;6123469;23;20381;-55
2023/05/13 06:14:40;;;;;;;3.67;3.38;;;;;;;18.24;64.56;102059.69;6122928;23;20006;-55
2023/05/13 06:17:05;;;;;;;5.10;3.60;;;;;;;18.23;64.61;102052.59;6122975;23;20031;-55
2023/05/13 06:19:30;;;;;;;4.03;3.67;;;;;;;18.24;65.02;102055.19;6122623;23;20006;-55
2023/05/13 06:21:56;;;;;;;4.10;3.47;;;;;;;18.24;65.00;102065.97;6122677;23;20088;-56
2023/05/13 06:24:21;;;;;;;4.28;3.72;;;;;;;18.25;65.23;102067.69;6122439;23;20017;-55
2023/05/13 06:26:46;;;;;;;8.07;4.07;;;;;;;18.26;65.49;102068.53;6123170;23;20013;-56
2023/05/13 06:29:12;;;;;;;5.70;3.88;;;;;;;18.25;65.64;102064.97;6122787;23;20080;-56
2023/05/13 06:31:37;;;;;;;5.80;4.32;;;;;;;18.25;65.75;102064.97;6121743;23;20006;-55
2023/05/13 06:34:03;;;;;;;6.05;4.78;;;;;;;18.25;65.70;102067.69;6122193;23;20429;-55
2023/05/13 06:36:28;;;;;;;9.35;4.00;;;;;;;18.24;65.74;102071.38;6122118;23;20492;-55
2023/05/13 06:38:54;;;;;;;6.95;4.60;;;;;;;18.25;65.62;102072.22;6124155;23;20013;-56
2023/05/13 06:41:19;;;;;;;7.53;4.47;;;;;;;18.23;64.93;102064.25;6099228;23;20016;-56
2023/05/13 06:43:45;;;;;;;6.10;4.50;;;;;;;18.24;64.76;102071.38;6124521;23;20332;-56
2023/05/13 06:46:11;;;;;;;5.57;4.10;;;;;;;18.22;64.86;102076.03;6124387;23;20020;-55
2023/05/13 06:48:36;;;;;;;6.13;4.38;;;;;;;18.23;64.70;102072.31;6123173;23;20021;-56
2023/05/13 06:51:03;;;;;;;9.85;5.18;;;;;;;18.22;64.38;102073.31;6124426;23;20009;-56
2023/05/13 06:53:30;;;;;;;7.78;4.40;;;;;;;18.22;64.29;102073.31;6124417;23;20439;-56
2023/05/13 06:55:56;;;;;;;4.85;4.45;;;;;;;18.23;64.64;102074.19;6124212;23;20017;-55
2023/05/13 06:58:21;;;;;;;4.15;3.78;;;;;;;18.24;64.60;102081.28;6124567;23;20006;-56
2023/05/13 07:00:46;;;;;;;6.97;4.38;;;;;;;18.24;64.71;102075.88;6125208;23;20010;-56
2023/05/13 07:03:12;;;;;;;6.53;4.80;;;;;;;18.24;64.99;102079.47;6123777;23;20093;-56
2023/05/13 07:05:37;;;;;;;5.40;4.75;;;;;;;18.23;64.63;102072.31;6124063;23;20010;-55
2023/05/13 07:08:05;;;;;;;6.80;5.40;;;;;;;18.24;64.66;102081.28;6124136;23;20009;-55
2023/05/13 07:10:34;;;;;;;5.43;4.80;;;;;;;18.25;64.92;102083.00;6124044;23;20005;-56
2023/05/13 07:13:00;;;;;;;8.63;5.55;;;;;;;18.25;64.89;102078.47;6123976;23;20025;-56
2023/05/13 07:15:26;;;;;;;7.68;5.45;;;;;;;18.25;64.95;102075.75;6124148;23;20034;-56
2023/05/13 07:17:51;;;;;;;5.13;4.65;;;;;;;18.25;64.81;102075.75;6125116;23;20421;-55
2023/05/13 07:20:20;;;;;;;6.20;5.60;;;;;;;18.25;64.82;102070.38;6124398;23;20057;-55
2023/05/13 07:22:49;;;;;;;7.28;5.63;;;;;;;18.25;64.85;102067.69;6123887;23;20016;-56
2023/05/13 07:25:15;;;;;;;7.10;5.53;;;;;;;18.26;64.87;102076.63;6124339;23;20369;-55
2023/05/13 07:27:40;;;;;;;5.88;5.10;;;;;;;18.26;64.88;102068.53;6124735;23;20006;-56
2023/05/13 07:30:06;;;;;;;11.38;5.40;;;;;;;18.26;64.77;102074.81;6124932;23;20139;-55
2023/05/13 07:32:31;;;;;;;6.45;5.22;;;;;;;18.26;65.01;102072.09;6124839;23;20010;-55
2023/05/13 07:34:57;;;;;;;7.55;5.63;;;;;;;18.28;64.85;102067.44;6124759;23;20017;-55
2023/05/13 07:37:23;;;;;;;6.47;5.35;;;;;;;18.28;64.95;102077.38;6124898;23;20010;-56
2023/05/13 07:39:48;;;;;;;9.57;5.05;;;;;;;18.26;65.05;102074.81;6124643;23;20014;-55
2023/05/13 07:42:14;;;;;;;6.95;5.47;;;;;;;18.28;64.86;102072.00;6123563;23;20036;-55
2023/05/13 07:44:39;;;;;;;5.93;5.10;;;;;;;18.27;65.13;102071.13;6124217;23;20436;-55
2023/05/13 07:47:05;;;;;;;5.68;4.72;;;;;;;18.27;64.96;102076.50;6124037;23;20010;-55
2023/05/13 07:49:30;;;;;;;11.95;5.75;;;;;;;18.28;64.96;102072.84;6124280;23;20021;-55
2023/05/13 07:51:56;;;;;;;6.90;4.85;;;;;;;18.28;64.86;102080.09;6124003;23;20072;-55
2023/05/13 07:54:21;;;;;;;6.90;5.18;;;;;;;18.29;65.07;102079.09;6124761;23;20016;-56
2023/05/13 07:56:46;;;;;;;5.53;5.03;;;;;;;18.29;65.24;102079.94;6124156;23;20032;-56
2023/05/13 07:59:12;;;;;;;7.25;5.28;;;;;;;18.29;65.33;102085.34;6123752;23;20089;-56
2023/05/13 08:01:37;;;;;;;5.82;5.20;;;;;;;18.29;64.98;102081.78;6097713;23;20029;-56
2023/05/13 08:04:03;;;;;;;5.28;4.68;;;;;;;18.30;65.25;102081.66;6122056;23;20136;-55
2023/05/13 08:06:28;;;;;;;6.32;5.18;;;;;;;18.28;65.21;102075.53;6121811;23;20136;-55
2023/05/13 08:08:53;;;;;;;6.35;4.90;;;;;;;18.29;65.08;102079.94;6097558;23;20002;-56
2023/05/13 08:11:20;;;;;;;4.93;4.53;;;;;;;18.29;65.02;102082.63;6122048;23;20440;-55
2023/05/13 08:13:45;;;;;;;10.95;5.30;;;;;;;18.29;65.15;102082.63;6122369;23;20014;-56
2023/05/13 08:16:11;;;;;;;6.60;5.32;;;;;;;18.30;65.23;102081.66;6121945;23;20314;-56
2023/05/13 08:18:36;;;;;;;5.40;4.90;;;;;;;18.32;65.05;102087.81;6121607;23;20049;-56
2023/05/13 08:21:02;;;;;;;7.50;5.65;;;;;;;18.32;65.18;102090.50;6121879;23;20006;-55
2023/05/13 08:23:27;;;;;;;6.40;4.57;;;;;;;18.31;65.28;102093.31;6122202;23;20014;-55
2023/05/13 08:25:52;;;;;;;8.40;4.88;;;;;;;18.31;65.65;102088.75;6122860;23;20067;-55
2023/05/13 08:28:18;;;;;;;5.60;5.07;;;;;;;18.31;65.33;102098.69;6122059;23;20010;-55
2023/05/13 08:30:43;;;;;;;8.30;4.97;;;;;;;18.30;65.29;102089.75;6121923;23;20010;-55
2023/05/13 08:33:10;;;;;;;5.15;4.65;;;;;;;18.31;65.51;102091.47;6122370;23;20037;-55
2023/05/13 08:35:36;;;;;;;7.30;4.22;;;;;;;18.33;65.29;102085.97;6122195;23;20010;-55
2023/05/13 08:38:04;;;;;;;6.30;4.50;;;;;;;18.33;65.28;102080.56;6122283;23;20463;-55
2023/05/13 08:40:30;;;;;;;7.32;4.90;;;;;;;18.33;65.70;102078.75;6122448;23;20406;-55
2023/05/13 08:42:59;;;;;;;5.13;4.63;;;;;;;18.34;65.42;102090.38;6122739;23;20005;-56
2023/05/13 08:45:28;;;;;;;7.70;4.55;;;;;;;18.34;65.60;102083.16;6122641;23;20006;-56
2023/05/13 08:48:00;;;;;;;7.10;4.63;;;;;;;18.34;65.67;102085.84;6122893;23;20010;-55
2023/05/13 08:50:27;;;;;;;5.68;4.55;;;;;;;18.35;65.80;102089.38;6122289;23;20006;-55
2023/05/13 08:52:53;;;;;;;4.70;4.25;;;;;;;18.35;65.73;102095.66;6122733;23;20006;-55
2023/05/13 08:55:19;;;;;;;6.03;4.68;;;;;;;18.36;65.49;102091.13;6122337;23;20073;-56
2023/05/13 08:57:44;;;;;;;4.90;4.40;;;;;;;18.36;65.83;102086.59;6122221;23;20049;-55
2023/05/13 09:00:10;;;;;;;5.15;4.35;;;;;;;18.38;65.63;102089.16;6121328;23;20010;-55
2023/05/13 09:02:36;;;;;;;7.45;4.40;;;;;;;18.36;65.68;102086.59;6077432;23;1074141;-55
2023/05/13 09:05:06;;;;;;;8.50;4.25;;;;;;;18.36;65.51;102086.59;6123361;23;20068;-55
2023/05/13 09:07:32;;;;;;;6.82;4.50;;;;;;;18.39;65.66;102074.72;6123356;23;20097;-54
2023/05/13 09:09:58;;;;;;;8.95;4.72;;;;;;;18.39;66.04;102076.53;6123437;23;20002;-55
2023/05/13 09:12:45;;;;;;;10.77;4.68;;;;;;;18.42;65.66;102077.16;6124322;23;20017;-54
2023/05/13 09:15:13;;;;;;;6.53;4.97;;;;;;;18.40;66.01;102070.19;6123050;23;20008;-55
2023/05/13 09:17:41;;;;;;;4.85;4.10;;;;;;;18.40;66.20;102073.72;6123337;23;20085;-55
2023/05/13 09:20:08;;;;;;;6.28;4.80;;;;;;;18.41;66.35;102071.88;6123160;23;20065;-55
2023/05/13 09:22:34;;;;;;;11.18;5.88;;;;;;;18.43;67.89;102072.63;6123648;23;20069;-55
2023/05/13 09:24:59;;;;;;;9.68;5.90;;;;;;;18.43;67.99;102069.91;6097222;23;20307;-55
2023/05/13 09:28:05;;;;;;;12.20;7.07;;;;;;;18.47;67.85;102066.03;6123209;23;20006;-55
2023/05/13 09:30:39;;;;;;;11.13;6.05;;;;;;;18.46;68.29;102061.59;6096059;23;20318;-55
2023/05/13 09:33:13;;;;;;;11.35;6.05;;;;;;;18.48;68.27;102062.34;6122872;23;20006;-55
2023/05/13 09:35:41;;;;;;;8.05;6.68;;;;;;;18.46;68.46;102065.16;6123240;23;20014;-55
2023/05/13 09:38:12;;;;;;;14.77;6.32;;;;;;;18.48;68.22;102062.34;6122990;23;20081;-55
2023/05/13 09:40:38;;;;;;;7.75;6.15;;;;;;;18.48;68.28;102059.66;6123281;23;20450;-55
2023/05/13 09:43:04;;;;;;;11.98;6.60;;;;;;;18.49;67.96;102061.38;6122838;23;20084;-56
2023/05/13 09:45:30;;;;;;;11.68;6.78;;;;;;;18.50;67.82;102055.84;6122528;23;20492;-56
2023/05/13 09:47:56;;;;;;;8.57;6.00;;;;;;;18.51;67.33;102056.72;6123459;23;20006;-54
2023/05/13 09:50:21;;;;;;;7.70;5.65;;;;;;;18.51;67.50;102051.31;6122451;23;20010;-54
2023/05/13 09:52:48;;;;;;;7.25;6.00;;;;;;;18.51;67.82;102057.56;6122323;23;20077;-54
2023/05/13 09:55:14;;;;;;;12.05;8.75;;;;;;;18.51;67.81;102052.19;6122737;23;20001;-53
2023/05/13 09:57:40;;;;;;;7.90;7.10;;;;;;;18.52;67.76;102053.91;6122468;23;19998;-53
2023/05/13 10:00:06;;;;;;;9.75;7.00;;;;;;;18.53;67.43;102054.75;6096955;23;20089;-54
2023/05/13 10:02:32;;;;;;;10.40;7.68;;;;;;;18.55;67.28;102055.50;6122485;23;20378;-53
2023/05/13 10:04:57;;;;;;;11.82;8.93;;;;;;;18.55;66.90;102048.25;6123444;23;20437;-53
2023/05/13 10:07:24;;;;;;;9.80;7.50;;;;;;;18.55;66.75;102042.84;6123053;23;20014;-53
2023/05/13 10:09:56;;;;;;;18.83;9.65;;;;;;;18.54;66.70;102042.97;6122483;23;20008;-54
2023/05/13 10:12:24;;;;;;;17.67;9.75;;;;;;;18.56;66.22;102043.72;6122432;23;20002;-54
2023/05/13 10:14:52;;;;;;;20.63;10.27;;;;;;;18.57;65.84;102040.03;6123007;23;20372;-54
2023/05/13 10:17:19;;;;;;;12.15;8.60;;;;;;;18.58;65.64;102040.91;6122895;23;20006;-53
2023/05/13 10:19:44;;;;;;;19.67;9.40;;;;;;;18.58;65.80;102044.44;6122527;23;20010;-53
2023/05/13 10:22:12;;;;;;;17.38;9.77;;;;;;;18.59;66.13;102039.94;6123128;23;20086;-54
2023/05/13 10:24:39;;;;;;;18.30;9.55;;;;;;;18.60;67.55;102037.13;6122702;23;20010;-53
2023/05/13 10:27:05;;;;;;;20.02;9.57;;;;;;;18.62;67.92;102036.97;6122907;23;20306;-52
2023/05/13 10:29:31;;;;;;;13.50;8.65;;;;;;;18.63;67.56;102039.56;6122225;23;20006;-52
2023/05/13 10:31:58;;;;;;;17.00;8.57;;;;;;;18.63;67.61;102034.16;6123393;23;20009;-53
2023/05/13 10:34:25;;;;;;;17.23;8.80;;;;;;;18.62;67.12;102027.06;6122513;23;20009;-52
2023/05/13 10:37:12;;;;;;;15.82;8.30;;;;;;;18.66;67.13;102039.31;6122516;23;20010;-52
2023/05/13 10:39:56;;;;;;;18.40;8.05;;;;;;;18.66;67.18;102033.94;6122424;23;20089;-52
2023/05/13 10:42:42;;;;;;;13.00;8.13;;;;;;;18.68;67.33;102033.81;6122492;23;20306;-52
2023/05/13 10:45:08;;;;;;;13.35;7.68;;;;;;;18.66;67.38;102033.94;6122156;23;20110;-52
2023/05/13 10:47:35;;;;;;;13.30;7.38;;;;;;;18.66;67.30;102022.28;6122761;23;20409;-52
2023/05/13 10:50:05;;;;;;;8.20;6.90;;;;;;;18.67;67.42;102024.84;6121691;23;19998;-52
2023/05/13 10:52:46;;;;;;;16.45;7.50;;;;;;;18.67;67.28;102030.22;6124259;23;20298;-52
2023/05/13 10:55:16;;;;;;;;;;;;;;;18.74;67.16;102022.53;6123887;23;20013;-51
2023/05/13 10:57:41;;;;;;;10.75;7.15;;;;;;;18.69;67.38;102017.47;6122532;23;19912;-52
2023/05/13 11:00:17;;;;;;;12.80;7.13;;;;;;;18.69;67.34;102022.88;6121476;23;20009;-52
2023/05/13 11:02:43;;;;;;;8.20;6.70;;;;;;;18.70;67.50;102019.22;6121411;23;20048;-52
2023/05/13 11:05:17;;;;;;;8.85;6.10;;;;;;;18.71;67.27;102014.66;6120695;23;20380;-51
2023/05/13 11:07:54;;;;;;;8.30;5.75;;;;;;;18.71;67.12;102018.22;6120447;23;20060;-52
2023/05/13 11:10:29;;;;;;;8.68;6.32;;;;;;;18.71;67.47;102009.25;6120805;23;20008;-52
2023/05/13 11:13:18;;;;;;;6.70;5.88;;;;;;;18.72;67.06;102017.25;6121059;23;20009;-52
2023/05/13 11:15:48;;;;;;;9.82;6.10;;;;;;;18.71;67.22;102012.81;6121487;23;20009;-52
2023/05/13 11:18:14;;;;;;;7.88;5.57;;;;;;;18.72;67.05;102001.06;6122674;23;20010;-51
2023/05/13 11:20:40;;;;;;;8.98;5.80;;;;;;;18.73;67.45;102007.31;6123256;23;20086;-52
2023/05/13 11:23:07;;;;;;;8.05;5.53;;;;;;;18.73;67.03;102002.78;6123547;23;20072;-52